createdAt,value
2018-05-27T00:01:56.690Z,86.90
2018-05-27T00:04:25.171Z,87.90
2018-05-27T00:06:52.842Z,86.90
2018-05-27T00:09:20.594Z,86.90
2018-05-27T00:11:48.270Z,86.70
2018-05-27T00:14:15.995Z,86.70
2018-05-27T00:16:43.675Z,86.60
2018-05-27T00:19:11.350Z,86.40
2018-05-27T00:21:39.067Z,86.00
2018-05-27T00:24:06.745Z,85.90
2018-05-27T00:26:34.476Z,86.10
2018-05-27T00:29:02.970Z,86.50
2018-05-27T00:31:30.638Z,86.50
2018-05-27T00:33:58.368Z,85.90
2018-05-27T00:36:26.038Z,85.80
2018-05-27T00:38:53.716Z,85.70
2018-05-27T00:41:21.428Z,85.40
2018-05-27T00:43:49.143Z,85.50
2018-05-27T00:46:16.855Z,85.50
2018-05-27T00:48:45.298Z,84.90
2018-05-27T00:51:13.034Z,84.80
2018-05-27T00:54:00.492Z,84.60
2018-05-27T00:56:28.261Z,84.80
2018-05-27T00:58:55.971Z,84.90
2018-05-27T01:01:23.646Z,84.70
2018-05-27T01:03:51.358Z,84.80
2018-05-27T01:06:19.032Z,84.50
2018-05-27T01:08:46.742Z,84.40
2018-05-27T01:11:14.418Z,84.10
2018-05-27T01:13:42.135Z,83.50
2018-05-27T01:16:09.815Z,83.60
2018-05-27T01:18:37.527Z,83.40
2018-05-27T01:21:05.228Z,83.70
2018-05-27T01:23:32.954Z,83.90
2018-05-27T01:26:00.674Z,84.20
2018-05-27T01:28:28.346Z,84.30
2018-05-27T01:30:56.058Z,84.20
2018-05-27T01:33:24.494Z,83.90
2018-05-27T01:35:52.220Z,83.90
2018-05-27T01:38:19.895Z,83.80
2018-05-27T01:40:47.798Z,83.60
2018-05-27T01:43:15.515Z,83.70
2018-05-27T01:45:43.194Z,83.60
2018-05-27T01:48:10.915Z,83.60
2018-05-27T01:50:39.406Z,83.20
2018-05-27T01:53:07.859Z,83.80
2018-05-27T01:55:35.535Z,83.00
2018-05-27T01:58:03.246Z,82.70
2018-05-27T02:00:30.922Z,82.20
2018-05-27T02:02:58.638Z,82.10
2018-05-27T02:05:27.083Z,81.80
2018-05-27T02:07:54.759Z,81.80
2018-05-27T02:10:22.470Z,82.00
2018-05-27T02:12:50.151Z,82.30
2018-05-27T02:15:17.878Z,82.50
2018-05-27T02:17:45.551Z,82.00
2018-05-27T02:20:13.231Z,81.50
2018-05-27T02:22:40.946Z,81.60
2018-05-27T02:25:08.660Z,81.70
2018-05-27T02:27:36.372Z,81.70
2018-05-27T02:30:04.109Z,81.60
2018-05-27T02:32:31.862Z,81.50
2018-05-27T02:34:59.589Z,81.00
2018-05-27T02:37:27.263Z,81.30
2018-05-27T02:39:54.942Z,81.50
2018-05-27T02:42:22.657Z,81.60
2018-05-27T02:44:50.327Z,81.40
2018-05-27T02:47:18.045Z,81.30
2018-05-27T02:49:46.491Z,81.00
2018-05-27T02:52:14.215Z,80.90
2018-05-27T02:54:41.894Z,80.10
2018-05-27T02:57:09.606Z,80.00
2018-05-27T02:59:37.280Z,80.00
2018-05-27T03:02:05.734Z,80.50
2018-05-27T03:04:33.463Z,80.50
2018-05-27T03:07:01.174Z,80.70
2018-05-27T03:09:29.656Z,81.00
2018-05-27T03:11:57.330Z,80.70
2018-05-27T03:14:25.813Z,80.40
2018-05-27T03:16:54.254Z,80.40
2018-05-27T03:19:21.971Z,80.30
2018-05-27T03:21:50.413Z,80.50
2018-05-27T03:24:18.167Z,80.50
2018-05-27T03:26:45.900Z,80.60
2018-05-27T03:29:13.583Z,80.40
2018-05-27T03:31:41.297Z,80.00
2018-05-27T03:34:08.986Z,79.70
2018-05-27T03:36:36.698Z,80.00
2018-05-27T03:39:04.402Z,80.00
2018-05-27T03:41:32.134Z,80.90
2018-05-27T03:43:59.810Z,80.10
2018-05-27T03:46:27.478Z,80.00
2018-05-27T03:48:55.186Z,79.90
2018-05-27T03:51:22.859Z,79.60
2018-05-27T03:53:50.570Z,79.60
2018-05-27T03:56:18.287Z,79.70
2018-05-27T03:58:46.007Z,79.70
2018-05-27T04:01:13.682Z,79.80
2018-05-27T04:03:42.191Z,80.50
2018-05-27T04:06:21.770Z,80.30
2018-05-27T04:08:49.507Z,80.60
2018-05-27T04:11:17.177Z,80.50
2018-05-27T04:13:44.850Z,80.60
2018-05-27T04:16:12.562Z,80.70
2018-05-27T04:18:41.043Z,80.50
2018-05-27T04:21:08.761Z,80.30
2018-05-27T04:23:37.206Z,80.10
2018-05-27T04:26:04.920Z,80.10
2018-05-27T04:28:33.409Z,80.70
2018-05-27T04:31:01.126Z,80.70
2018-05-27T04:33:28.802Z,81.10
2018-05-27T04:35:56.513Z,81.40
2018-05-27T04:38:24.191Z,82.10
2018-05-27T04:40:51.914Z,82.40
2018-05-27T04:43:20.353Z,83.00
2018-05-27T04:45:48.028Z,83.00
2018-05-27T04:48:15.759Z,83.30
2018-05-27T04:50:43.435Z,83.60
2018-05-27T04:53:11.103Z,84.20
2018-05-27T04:55:38.814Z,85.00
2018-05-27T04:58:07.259Z,86.10
2018-05-27T05:00:34.985Z,86.10
2018-05-27T05:03:02.657Z,86.20
2018-05-27T05:05:30.369Z,86.40
2018-05-27T05:07:58.810Z,87.40
2018-05-27T05:10:26.484Z,87.10
2018-05-27T05:12:54.202Z,87.30
2018-05-27T05:15:21.966Z,87.40
2018-05-27T05:17:49.638Z,87.40
2018-05-27T05:20:17.322Z,87.10
2018-05-27T05:22:45.034Z,86.90
2018-05-27T05:25:13.535Z,87.20
2018-05-27T05:27:42.015Z,87.20
2018-05-27T05:30:09.706Z,87.20
2018-05-27T05:32:37.424Z,87.30
2018-05-27T05:35:05.102Z,87.20
2018-05-27T05:37:33.582Z,86.90
2018-05-27T05:40:02.062Z,87.20
2018-05-27T05:42:29.737Z,87.10
2018-05-27T05:44:58.214Z,87.40
2018-05-27T05:47:26.715Z,87.70
2018-05-27T05:49:54.390Z,87.60
2018-05-27T05:52:22.071Z,87.70
2018-05-27T05:54:49.785Z,88.40
2018-05-27T05:57:18.270Z,87.60
2018-05-27T05:59:45.995Z,87.60
2018-05-27T06:02:13.667Z,87.60
2018-05-27T06:04:41.345Z,87.60
2018-05-27T06:07:09.829Z,87.90
2018-05-27T06:09:38.299Z,88.30
2018-05-27T06:12:05.970Z,88.20
2018-05-27T06:14:33.698Z,88.60
2018-05-27T06:17:01.414Z,89.20
2018-05-27T06:19:29.102Z,89.50
2018-05-27T06:21:57.611Z,89.80
2018-05-27T06:24:25.294Z,89.80
2018-05-27T06:26:53.006Z,89.80
2018-05-27T06:29:21.444Z,89.50
2018-05-27T06:31:49.159Z,89.50
2018-05-27T06:34:16.879Z,89.40
2018-05-27T06:36:44.559Z,89.30
2018-05-27T06:39:12.362Z,89.50
2018-05-27T06:41:40.044Z,89.60
2018-05-27T06:44:07.778Z,89.70
2018-05-27T06:46:35.527Z,89.70
2018-05-27T06:49:03.242Z,89.70
2018-05-27T06:51:30.919Z,89.70
2018-05-27T06:53:59.403Z,89.70
2018-05-27T06:56:27.888Z,89.90
2018-05-27T06:58:56.372Z,89.70
2018-05-27T07:01:24.102Z,89.70
2018-05-27T07:03:52.555Z,90.00
2018-05-27T07:06:20.302Z,89.80
2018-05-27T07:08:48.027Z,90.10
2018-05-27T07:11:15.748Z,90.10
2018-05-27T07:13:43.431Z,90.00
2018-05-27T07:16:11.166Z,90.20
2018-05-27T07:18:39.611Z,90.40
2018-05-27T07:21:07.295Z,90.40
2018-05-27T07:23:35.016Z,90.30
2018-05-27T07:26:02.695Z,90.30
2018-05-27T07:28:30.410Z,90.30
2018-05-27T07:30:58.086Z,90.50
2018-05-27T07:33:25.810Z,90.60
2018-05-27T07:35:53.494Z,90.80
2018-05-27T07:38:21.938Z,91.10
2018-05-27T07:40:49.680Z,91.00
2018-05-27T07:43:18.119Z,91.10
2018-05-27T07:45:45.831Z,90.90
2018-05-27T07:48:14.270Z,91.10
2018-05-27T07:50:42.003Z,91.10
2018-05-27T07:53:09.674Z,90.90
2018-05-27T07:55:37.391Z,90.90
2018-05-27T07:58:05.829Z,91.20
2018-05-27T08:00:33.542Z,91.20
2018-05-27T08:03:01.991Z,91.40
2018-05-27T08:05:29.788Z,91.30
2018-05-27T08:07:58.249Z,91.60
2018-05-27T08:10:25.959Z,91.50
2018-05-27T08:12:53.636Z,91.60
2018-05-27T08:15:21.310Z,91.80
2018-05-27T08:17:49.030Z,92.00
2018-05-27T08:20:17.531Z,92.10
2018-05-27T08:22:45.255Z,92.00
2018-05-27T08:25:12.935Z,92.10
2018-05-27T08:27:41.477Z,91.80
2018-05-27T08:30:09.155Z,91.80
2018-05-27T08:32:36.879Z,91.60
2018-05-27T08:35:04.572Z,91.60
2018-05-27T08:37:32.271Z,91.70
2018-05-27T08:40:00.754Z,91.10
2018-05-27T08:42:29.225Z,90.90
2018-05-27T08:44:57.706Z,91.40
2018-05-27T08:47:26.150Z,91.80
2018-05-27T08:49:53.867Z,91.80
2018-05-27T08:52:21.573Z,92.20
2018-05-27T08:54:50.067Z,92.60
2018-05-27T08:57:18.541Z,92.70
2018-05-27T08:59:46.318Z,92.70
2018-05-27T09:02:13.991Z,92.70
2018-05-27T09:04:41.742Z,92.70
2018-05-27T09:07:10.184Z,92.90
2018-05-27T09:09:37.869Z,92.90
2018-05-27T09:12:06.360Z,92.60
2018-05-27T09:14:34.804Z,92.70
2018-05-27T09:17:02.482Z,92.70
2018-05-27T09:19:30.223Z,92.90
2018-05-27T09:21:57.920Z,93.20
2018-05-27T09:24:25.628Z,93.20
2018-05-27T09:26:53.347Z,93.20
2018-05-27T09:29:21.063Z,93.40
2018-05-27T09:31:48.976Z,93.50
2018-05-27T09:34:16.698Z,93.30
2018-05-27T09:36:44.438Z,93.40
2018-05-27T09:39:12.117Z,93.30
2018-05-27T09:41:39.835Z,93.50
2018-05-27T09:44:07.547Z,93.80
2018-05-27T09:46:35.276Z,93.90
2018-05-27T09:49:03.818Z,93.30
2018-05-27T09:51:31.593Z,93.30
2018-05-27T09:53:59.316Z,93.00
2018-05-27T09:56:27.070Z,93.20
2018-05-27T09:58:54.747Z,93.30
2018-05-27T10:01:22.475Z,93.50
2018-05-27T10:03:50.166Z,93.50
2018-05-27T10:06:17.858Z,93.50
2018-05-27T10:08:46.342Z,92.90
2018-05-27T10:11:14.857Z,91.50
2018-05-27T10:13:42.595Z,91.50
2018-05-27T10:16:10.313Z,90.50
2018-05-27T10:18:38.755Z,91.80
2018-05-27T10:21:06.469Z,91.80
2018-05-27T10:23:34.183Z,92.30
2018-05-27T10:26:01.938Z,92.70
2018-05-27T10:28:29.634Z,92.80
2018-05-27T10:30:58.094Z,87.10
2018-05-27T10:33:25.819Z,87.00
2018-05-27T10:35:53.507Z,88.10
2018-05-27T10:38:21.251Z,89.50
2018-05-27T10:40:48.935Z,88.50
2018-05-27T10:43:16.659Z,87.00
2018-05-27T10:45:44.341Z,88.00
2018-05-27T10:48:12.075Z,89.30
2018-05-27T10:50:40.536Z,90.90
2018-05-27T10:53:08.223Z,90.90
2018-05-27T10:55:36.706Z,90.80
2018-05-27T10:58:04.385Z,90.80
2018-05-27T11:00:32.123Z,91.00
2018-05-27T11:03:00.574Z,92.00
2018-05-27T11:05:28.306Z,92.80
2018-05-27T11:07:55.991Z,92.20
2018-05-27T11:10:23.715Z,92.50
2018-05-27T11:12:51.387Z,91.20
2018-05-27T11:15:19.114Z,85.20
2018-05-27T11:17:47.558Z,84.80
2018-05-27T11:20:15.271Z,84.80
2018-05-27T11:22:43.758Z,88.30
2018-05-27T11:25:11.459Z,88.20
2018-05-27T11:27:39.179Z,87.60
2018-05-27T11:30:07.627Z,89.30
2018-05-27T11:32:35.342Z,89.30
2018-05-27T11:35:03.024Z,90.30
2018-05-27T11:37:30.743Z,91.10
2018-05-27T11:39:59.186Z,91.90
2018-05-27T11:42:26.917Z,91.80
2018-05-27T11:44:54.646Z,88.90
2018-05-27T11:47:23.135Z,89.70
2018-05-27T11:49:51.635Z,90.10
2018-05-27T11:52:19.322Z,90.10
2018-05-27T11:54:47.039Z,90.30
2018-05-27T11:57:14.715Z,89.70
2018-05-27T11:59:42.430Z,87.10
2018-05-27T12:02:10.122Z,86.00
2018-05-27T12:04:37.867Z,86.20
2018-05-27T12:07:06.351Z,88.30
2018-05-27T12:09:34.929Z,88.50
2018-05-27T12:12:02.595Z,88.40
2018-05-27T12:14:31.075Z,89.40
2018-05-27T12:16:59.596Z,88.90
2018-05-27T12:19:28.107Z,88.90
2018-05-27T12:21:55.915Z,88.90
2018-05-27T12:24:26.478Z,87.50
2018-05-27T12:26:54.271Z,87.40
2018-05-27T12:29:22.000Z,90.00
2018-05-27T12:31:50.479Z,84.60
2018-05-27T12:34:18.920Z,83.50
2018-05-27T12:36:46.667Z,83.50
2018-05-27T12:39:15.199Z,87.30
2018-05-27T12:41:45.127Z,87.30
2018-05-27T12:44:13.660Z,88.40
2018-05-27T12:46:42.107Z,85.50
2018-05-27T12:49:09.823Z,85.50
2018-05-27T12:51:37.494Z,86.70
2018-05-27T12:54:05.938Z,87.00
2018-05-27T12:56:34.435Z,81.30
2018-05-27T12:59:02.876Z,82.70
2018-05-27T13:01:30.562Z,82.70
2018-05-27T13:03:59.050Z,87.10
2018-05-27T13:06:27.492Z,87.90
2018-05-27T13:08:55.207Z,87.90
2018-05-27T13:11:23.690Z,85.20
2018-05-27T13:13:52.136Z,86.50
2018-05-27T13:16:19.930Z,86.40
2018-05-27T13:18:48.361Z,75.70
2018-05-27T13:21:16.106Z,75.70
2018-05-27T13:23:43.869Z,73.80
2018-05-27T13:26:11.551Z,73.60
2018-05-27T13:28:39.266Z,74.10
2018-05-27T13:31:07.711Z,81.00
2018-05-27T13:33:35.426Z,81.00
2018-05-27T13:36:03.108Z,82.20
2018-05-27T13:38:30.827Z,83.70
2018-05-27T13:40:59.271Z,84.50
2018-05-27T13:43:26.997Z,84.50
2018-05-27T13:45:54.699Z,83.40
2018-05-27T13:48:22.370Z,79.40
2018-05-27T13:50:50.078Z,77.50
2018-05-27T13:53:18.523Z,81.20
2018-05-27T13:55:46.238Z,81.20
2018-05-27T13:58:13.910Z,83.00
2018-05-27T14:00:41.627Z,84.90
2018-05-27T14:03:09.308Z,85.60
2018-05-27T14:05:37.786Z,78.40
2018-05-27T14:08:06.275Z,77.00
2018-05-27T14:10:34.723Z,76.50
2018-05-27T14:13:02.448Z,76.50
2018-05-27T14:15:30.124Z,77.40
2018-05-27T14:17:57.851Z,81.40
2018-05-27T14:20:26.298Z,84.10
2018-05-27T14:22:53.986Z,84.10
2018-05-27T14:25:22.467Z,85.80
2018-05-27T14:27:50.915Z,84.20
2018-05-27T14:30:18.639Z,84.20
2018-05-27T14:32:46.316Z,79.90
2018-05-27T14:35:14.040Z,76.70
2018-05-27T14:37:42.491Z,81.30
2018-05-27T14:40:10.223Z,81.30
2018-05-27T14:42:37.907Z,83.00
2018-05-27T14:45:05.701Z,84.60
2018-05-27T14:47:33.427Z,85.10
2018-05-27T14:50:01.115Z,86.10
2018-05-27T14:52:28.835Z,86.10
2018-05-27T14:54:56.642Z,85.10
2018-05-27T14:57:24.383Z,84.10
2018-05-27T14:59:52.067Z,82.20
2018-05-27T15:02:19.752Z,84.10
2018-05-27T15:04:48.243Z,87.20
2018-05-27T15:07:16.689Z,87.20
2018-05-27T15:09:44.419Z,87.00
2018-05-27T15:12:12.140Z,87.90
2018-05-27T15:14:40.639Z,87.90
2018-05-27T15:17:09.085Z,88.10
2018-05-27T15:19:36.798Z,88.10
2018-05-27T15:22:04.478Z,88.20
2018-05-27T15:24:32.211Z,88.70
2018-05-27T15:27:00.655Z,89.60
2018-05-27T15:29:28.337Z,89.60
2018-05-27T15:31:56.086Z,89.20
2018-05-27T15:34:23.826Z,89.20
2018-05-27T15:36:51.515Z,89.70
2018-05-27T15:39:19.199Z,89.80
2018-05-27T15:41:47.700Z,89.20
2018-05-27T15:44:15.378Z,89.10
2018-05-27T15:46:43.058Z,89.30
2018-05-27T15:49:10.786Z,89.70
2018-05-27T15:51:39.230Z,90.50
2018-05-27T15:54:06.911Z,90.50
2018-05-27T15:56:34.628Z,90.50
2018-05-27T15:59:02.303Z,91.60
2018-05-27T16:01:30.015Z,91.10
2018-05-27T16:03:58.543Z,91.30
2018-05-27T16:06:26.216Z,91.30
2018-05-27T16:08:53.951Z,91.50
2018-05-27T16:11:21.622Z,91.50
2018-05-27T16:13:49.295Z,91.50
2018-05-27T16:16:17.015Z,91.70
2018-05-27T16:18:44.739Z,92.00
2018-05-27T16:21:13.236Z,92.20
2018-05-27T16:23:40.915Z,92.10
2018-05-27T16:26:08.582Z,92.00
2018-05-27T16:28:36.298Z,92.10
2018-05-27T16:31:04.010Z,92.20
2018-05-27T16:33:31.687Z,92.40
2018-05-27T16:35:59.427Z,92.60
2018-05-27T16:38:27.097Z,92.70
2018-05-27T16:40:54.814Z,92.80
2018-05-27T16:43:22.538Z,92.90
2018-05-27T16:45:50.285Z,93.10
2018-05-27T16:48:18.076Z,93.10
2018-05-27T16:50:45.750Z,93.10
2018-05-27T16:53:13.483Z,93.20
2018-05-27T16:55:41.259Z,93.20
2018-05-27T16:58:08.998Z,93.20
2018-05-27T17:00:36.735Z,93.30
2018-05-27T17:03:04.418Z,93.50
2018-05-27T17:05:32.260Z,93.50
2018-05-27T17:08:00.007Z,93.20
2018-05-27T17:10:28.446Z,92.80
2018-05-27T17:12:56.167Z,92.80
2018-05-27T17:15:23.852Z,92.80
2018-05-27T17:17:51.640Z,92.60
2018-05-27T17:20:19.381Z,92.70
2018-05-27T17:22:47.808Z,92.60
2018-05-27T17:25:15.576Z,92.80
2018-05-27T17:27:43.254Z,93.00
2018-05-27T17:30:10.979Z,92.70
2018-05-27T17:32:40.126Z,92.70
2018-05-27T17:35:07.838Z,93.10
2018-05-27T17:37:35.515Z,93.20
2018-05-27T17:40:03.277Z,93.20
2018-05-27T17:42:30.962Z,93.30
2018-05-27T17:44:58.694Z,93.00
2018-05-27T17:47:26.377Z,93.10
2018-05-27T17:49:54.823Z,93.50
2018-05-27T17:52:22.550Z,93.50
2018-05-27T17:54:50.219Z,93.70
2018-05-27T17:57:17.962Z,93.70
2018-05-27T17:59:45.634Z,93.70
2018-05-27T18:02:13.343Z,93.70
2018-05-27T18:04:41.020Z,93.60
2018-05-27T18:07:08.795Z,93.50
2018-05-27T18:09:37.242Z,93.70
2018-05-27T18:12:04.980Z,93.70
2018-05-27T18:14:32.660Z,93.90
2018-05-27T18:17:00.345Z,94.00
2018-05-27T18:19:28.062Z,94.10
2018-05-27T18:21:56.541Z,94.00
2018-05-27T18:24:24.280Z,94.00
2018-05-27T18:26:51.964Z,93.80
2018-05-27T18:29:19.664Z,93.70
2018-05-27T18:31:48.167Z,93.80
2018-05-27T18:34:15.850Z,93.80
2018-05-27T18:36:43.579Z,93.80
2018-05-27T18:39:12.043Z,94.10
2018-05-27T18:41:40.526Z,94.40
2018-05-27T18:44:09.146Z,94.20
2018-05-27T18:46:36.863Z,94.40
2018-05-27T18:49:04.603Z,94.50
2018-05-27T18:51:32.366Z,94.60
2018-05-27T18:54:00.062Z,94.70
2018-05-27T18:56:28.551Z,94.90
2018-05-27T18:58:57.037Z,94.90
2018-05-27T19:01:25.311Z,94.90
2018-05-27T19:03:52.999Z,94.90
2018-05-27T19:06:20.712Z,95.00
2018-05-27T19:08:48.414Z,95.00
2018-05-27T19:11:16.890Z,95.20
2018-05-27T19:13:45.366Z,95.20
2018-05-27T19:16:13.823Z,95.30
2018-05-27T19:18:41.539Z,95.10
2018-05-27T19:21:09.328Z,95.30
2018-05-27T19:23:37.259Z,95.30
2018-05-27T19:26:05.718Z,95.40
2018-05-27T19:28:33.449Z,95.40
2018-05-27T19:31:01.896Z,95.60
2018-05-27T19:33:29.635Z,95.50
2018-05-27T19:35:57.311Z,95.50
2018-05-27T19:38:24.998Z,95.60
2018-05-27T19:40:52.848Z,95.70
2018-05-27T19:43:20.624Z,95.70
2018-05-27T19:45:48.325Z,95.60
2018-05-27T19:48:16.014Z,95.70
2018-05-27T19:50:43.734Z,95.80
2018-05-27T19:53:12.433Z,95.70
2018-05-27T19:55:41.014Z,96.50
2018-05-27T19:58:08.866Z,95.70
2018-05-27T20:00:36.718Z,95.80
2018-05-27T20:03:04.432Z,95.90
2018-05-27T20:05:32.875Z,95.90
2018-05-27T20:08:00.634Z,95.80
2018-05-27T20:10:28.345Z,95.80
2018-05-27T20:12:57.206Z,95.80
2018-05-27T20:15:24.994Z,95.90
2018-05-27T20:17:52.802Z,95.80
2018-05-27T20:20:20.598Z,96.60
2018-05-27T20:22:48.347Z,95.80
2018-05-27T20:25:16.019Z,95.70
2018-05-27T20:27:43.874Z,95.70
2018-05-27T20:30:11.943Z,95.70
2018-05-27T20:32:39.707Z,95.70
2018-05-27T20:35:07.436Z,95.60
2018-05-27T20:37:35.130Z,95.40
2018-05-27T20:40:02.968Z,95.30
2018-05-27T20:42:30.679Z,95.30
2018-05-27T20:44:59.167Z,94.90
2018-05-27T20:47:26.986Z,94.90
2018-05-27T20:49:54.747Z,94.90
2018-05-27T20:52:22.435Z,95.00
2018-05-27T20:54:50.165Z,94.80
2018-05-27T20:57:17.917Z,94.50
2018-05-27T20:59:45.626Z,94.00
2018-05-27T21:02:13.411Z,94.00
2018-05-27T21:04:42.360Z,93.80
2018-05-27T21:07:10.128Z,93.80
2018-05-27T21:09:37.819Z,93.90
2018-05-27T21:12:05.547Z,94.00
2018-05-27T21:14:33.229Z,93.80
2018-05-27T21:17:00.989Z,93.50
2018-05-27T21:19:28.674Z,93.00
2018-05-27T21:21:56.350Z,93.20
2018-05-27T21:24:24.068Z,92.90
2018-05-27T21:26:51.755Z,91.60
2018-05-27T21:29:19.479Z,90.40
2018-05-27T21:31:48.091Z,90.20
2018-05-27T21:34:16.575Z,89.60
2018-05-27T21:36:45.019Z,89.40
2018-05-27T21:39:12.734Z,89.40
2018-05-27T21:41:41.463Z,89.40
2018-05-27T21:44:09.182Z,89.40
2018-05-27T21:46:37.635Z,89.40
2018-05-27T21:49:05.323Z,89.30
2018-05-27T21:51:33.832Z,89.30
2018-05-27T21:54:01.511Z,89.20
2018-05-27T21:56:29.238Z,89.00
2018-05-27T21:58:56.905Z,89.30
2018-05-27T22:01:24.585Z,89.50
2018-05-27T22:03:52.298Z,89.90
2018-05-27T22:06:19.974Z,90.20
2018-05-27T22:08:47.687Z,90.20
2018-05-27T22:11:16.150Z,90.90
2018-05-27T22:13:43.882Z,90.10
2018-05-27T22:16:11.550Z,90.30
2018-05-27T22:18:39.271Z,90.40
2018-05-27T22:21:06.943Z,90.50
2018-05-27T22:23:34.658Z,90.40
2018-05-27T22:26:02.430Z,90.10
2018-05-27T22:28:30.102Z,89.90
2018-05-27T22:30:57.822Z,89.90
2018-05-27T22:33:26.259Z,90.20
2018-05-27T22:35:53.975Z,90.00
2018-05-27T22:38:22.812Z,89.90
2018-05-27T22:40:50.522Z,89.80
2018-05-27T22:43:18.334Z,89.50
2018-05-27T22:45:46.083Z,89.20
2018-05-27T22:48:13.820Z,89.90
2018-05-27T22:50:41.542Z,88.70
2018-05-27T22:53:09.218Z,88.60
2018-05-27T22:55:36.940Z,88.30
2018-05-27T22:58:05.425Z,88.20
2018-05-27T23:00:33.150Z,88.10
2018-05-27T23:03:00.889Z,88.10
2018-05-27T23:05:28.563Z,88.30
2018-05-27T23:07:56.238Z,87.90
2018-05-27T23:10:23.959Z,88.00
2018-05-27T23:12:51.678Z,88.00
2018-05-27T23:15:19.406Z,88.00
2018-05-27T23:17:47.091Z,88.10
2018-05-27T23:20:14.820Z,88.20
2018-05-27T23:22:42.499Z,88.10
2018-05-27T23:25:10.253Z,88.10
2018-05-27T23:27:37.959Z,88.10
2018-05-27T23:30:05.674Z,88.00
2018-05-27T23:32:33.366Z,87.80
2018-05-27T23:35:01.093Z,87.60
2018-05-27T23:37:28.781Z,87.50
2018-05-27T23:39:56.508Z,87.30
2018-05-27T23:42:24.187Z,87.20
2018-05-27T23:44:51.866Z,87.20
2018-05-27T23:47:19.583Z,87.30
2018-05-27T23:49:47.267Z,87.20
2018-05-27T23:52:14.982Z,87.00
2018-05-27T23:54:43.422Z,86.80
2018-05-27T23:57:11.142Z,87.50
2018-05-27T23:59:38.829Z,86.40
